Bookmark and Share
Track history (hours):
 

Harvest Peace

Last reported at 2014-Apr-25 05:34 UTC. Time now 2014-Apr-25 06:06 UTC.
Position N 36°36' E 013°17'.

Length 225 m; draft 7 m.

Type: Cargo ship. MMSI: 538004103.

NotesDate/timePositionNaut miles runAvg speedWind from/ knotsBaromVisibWave heightAir tempDewpointWater temp
2014-Apr-25 05:34N 36°36' E 013°17'1312.6
2014-Apr-25 04:34N 36°30' E 013°31'1212.4
2014-Apr-25 03:33N 36°24' E 013°44'1312.6
2014-Apr-25 02:34N 36°19' E 013°58'1313.1
2014-Apr-25 01:34N 36°13' E 014°13'1312.8
2014-Apr-25 00:33N 36°05' E 014°26'1313.0
2014-Apr-24 23:33N 35°55' E 014°37'6 2.0
2014-Apr-24 20:20N 35°49' E 014°36'0 0.0
2014-Apr-24 19:23N 35°49' E 014°36'0 0.0
2014-Apr-24 18:32N 35°49' E 014°36'0 0.0
2014-Apr-24 17:32N 35°49' E 014°36'0 0.0
2014-Apr-24 14:32N 35°49' E 014°36'0 0.0
2014-Apr-24 13:32N 35°49' E 014°36'0 0.0
2014-Apr-24 12:32N 35°49' E 014°36'0 0.0
2014-Apr-24 11:32N 35°49' E 014°36'0 0.0
2014-Apr-24 10:32N 35°49' E 014°36'1 1.2
2014-Apr-24 09:34N 35°48' E 014°37'1211.4
2014-Apr-24 08:29N 35°41' E 014°49'1112.2
2014-Apr-24 07:33N 35°33' E 014°60'  
2014-Apr-21 02:21N 32°30' E 029°15'8314.0
2014-Apr-20 20:24N 32°06' E 030°49'1814.2
2014-Apr-20 19:08N 31°60' E 031°09'814.6
2014-Apr-20 18:33N 31°57' E 031°18'1414.5
2014-Apr-20 17:33N 31°52' E 031°34'1413.9
2014-Apr-20 16:33N 31°42' E 031°45'10 9.9
2014-Apr-20 15:33N 31°32' E 031°46'4 2.6
2014-Apr-20 14:04N 31°28' E 031°46'0 0.0
2014-Apr-20 13:28N 31°28' E 031°46'0 0.0
2014-Apr-20 06:13N 31°28' E 031°46'0 0.0
2014-Apr-19 17:28N 31°28' E 031°45'0 0.0
2014-Apr-19 10:28N 31°28' E 031°45'0 0.0
2014-Apr-19 02:25N 31°28' E 031°46'1 0.1
2014-Apr-18 20:26N 31°28' E 031°46'0 0.0
2014-Apr-18 03:32N 31°28' E 031°46'0 0.0
2014-Apr-18 02:32N 31°28' E 031°46'0 0.0
2014-Apr-18 01:32N 31°28' E 031°46'0 0.0
2014-Apr-18 00:32N 31°28' E 031°46'0 0.0
2014-Apr-17 23:32N 31°28' E 031°46'0 0.0
2014-Apr-17 22:32N 31°28' E 031°46'0 0.0
2014-Apr-17 21:26N 31°28' E 031°46'0 0.0
2014-Apr-17 20:32N 31°28' E 031°46'0 0.0
2014-Apr-17 18:20N 31°28' E 031°46'  
2014-Apr-15 05:34N 31°30' E 031°46'  

Dump ship's entire track history

sailing weather and tide predictions

Harvest Peace — V7VE7 — position and weather